sensor_id;sensor_type;location;lat;lon;timestamp;P1;durP1;ratioP1;P2;durP2;ratioP2
16514;SDS011;8370;52.556;7.970;2022-11-20T00:01:47;23.10;;;11.43;;
16514;SDS011;8370;52.556;7.970;2022-11-20T00:04:13;20.23;;;11.73;;
16514;SDS011;8370;52.556;7.970;2022-11-20T00:06:39;20.07;;;10.47;;
16514;SDS011;8370;52.556;7.970;2022-11-20T00:09:04;20.77;;;11.17;;
16514;SDS011;8370;52.556;7.970;2022-11-20T00:11:30;20.23;;;9.47;;
16514;SDS011;8370;52.556;7.970;2022-11-20T00:13:57;19.03;;;11.43;;
16514;SDS011;8370;52.556;7.970;2022-11-20T00:16:25;25.03;;;11.73;;
16514;SDS011;8370;52.556;7.970;2022-11-20T00:18:52;22.03;;;11.27;;
16514;SDS011;8370;52.556;7.970;2022-11-20T00:21:20;19.50;;;11.20;;
16514;SDS011;8370;52.556;7.970;2022-11-20T00:23:51;24.47;;;11.93;;
16514;SDS011;8370;52.556;7.970;2022-11-20T00:26:19;21.27;;;11.67;;
16514;SDS011;8370;52.556;7.970;2022-11-20T00:28:59;21.23;;;12.07;;
16514;SDS011;8370;52.556;7.970;2022-11-20T00:31:25;27.73;;;13.70;;
16514;SDS011;8370;52.556;7.970;2022-11-20T00:33:51;21.17;;;12.07;;
16514;SDS011;8370;52.556;7.970;2022-11-20T00:36:18;27.63;;;12.87;;
16514;SDS011;8370;52.556;7.970;2022-11-20T00:38:52;28.07;;;13.07;;
16514;SDS011;8370;52.556;7.970;2022-11-20T00:41:19;24.80;;;13.70;;
16514;SDS011;8370;52.556;7.970;2022-11-20T00:43:45;26.07;;;12.87;;
16514;SDS011;8370;52.556;7.970;2022-11-20T00:46:17;34.93;;;14.43;;
16514;SDS011;8370;52.556;7.970;2022-11-20T00:48:44;24.83;;;13.20;;
16514;SDS011;8370;52.556;7.970;2022-11-20T00:51:11;26.23;;;14.97;;
16514;SDS011;8370;52.556;7.970;2022-11-20T00:53:38;25.83;;;14.03;;
16514;SDS011;8370;52.556;7.970;2022-11-20T00:56:05;21.77;;;12.50;;
16514;SDS011;8370;52.556;7.970;2022-11-20T00:58:36;22.20;;;11.60;;
16514;SDS011;8370;52.556;7.970;2022-11-20T01:01:04;19.47;;;10.73;;
16514;SDS011;8370;52.556;7.970;2022-11-20T01:03:32;22.77;;;12.33;;
16514;SDS011;8370;52.556;7.970;2022-11-20T01:05:59;27.30;;;11.07;;
16514;SDS011;8370;52.556;7.970;2022-11-20T01:08:33;29.33;;;12.77;;
16514;SDS011;8370;52.556;7.970;2022-11-20T01:11:04;25.00;;;11.63;;
16514;SDS011;8370;52.556;7.970;2022-11-20T01:13:32;17.97;;;10.47;;
16514;SDS011;8370;52.556;7.970;2022-11-20T01:16:07;22.10;;;11.13;;
16514;SDS011;8370;52.556;7.970;2022-11-20T01:18:36;24.33;;;10.27;;
16514;SDS011;8370;52.556;7.970;2022-11-20T01:21:09;20.93;;;10.37;;
16514;SDS011;8370;52.556;7.970;2022-11-20T01:23:37;20.93;;;9.90;;
16514;SDS011;8370;52.556;7.970;2022-11-20T01:26:06;24.77;;;11.17;;
16514;SDS011;8370;52.556;7.970;2022-11-20T01:28:34;22.80;;;11.17;;
16514;SDS011;8370;52.556;7.970;2022-11-20T01:31:00;26.03;;;11.23;;
16514;SDS011;8370;52.556;7.970;2022-11-20T01:33:26;23.90;;;11.00;;
16514;SDS011;8370;52.556;7.970;2022-11-20T01:35:52;18.33;;;9.77;;
16514;SDS011;8370;52.556;7.970;2022-11-20T01:38:18;20.93;;;9.30;;
16514;SDS011;8370;52.556;7.970;2022-11-20T01:40:45;20.37;;;9.73;;
16514;SDS011;8370;52.556;7.970;2022-11-20T01:43:19;20.63;;;10.10;;
16514;SDS011;8370;52.556;7.970;2022-11-20T01:51:39;34.70;;;12.27;;
16514;SDS011;8370;52.556;7.970;2022-11-20T01:54:10;18.90;;;9.87;;
16514;SDS011;8370;52.556;7.970;2022-11-20T01:56:41;18.37;;;9.57;;
16514;SDS011;8370;52.556;7.970;2022-11-20T01:59:09;23.87;;;9.73;;
16514;SDS011;8370;52.556;7.970;2022-11-20T02:01:37;21.27;;;8.73;;
16514;SDS011;8370;52.556;7.970;2022-11-20T02:04:04;21.40;;;9.57;;
16514;SDS011;8370;52.556;7.970;2022-11-20T02:06:32;23.73;;;10.87;;
16514;SDS011;8370;52.556;7.970;2022-11-20T02:09:03;19.80;;;10.57;;
16514;SDS011;8370;52.556;7.970;2022-11-20T02:11:29;20.33;;;9.93;;
16514;SDS011;8370;52.556;7.970;2022-11-20T02:13:56;22.00;;;10.50;;
16514;SDS011;8370;52.556;7.970;2022-11-20T02:16:23;20.67;;;8.93;;
16514;SDS011;8370;52.556;7.970;2022-11-20T02:18:49;17.03;;;9.73;;
16514;SDS011;8370;52.556;7.970;2022-11-20T02:21:31;19.97;;;10.17;;
16514;SDS011;8370;52.556;7.970;2022-11-20T02:24:21;17.13;;;8.33;;
16514;SDS011;8370;52.556;7.970;2022-11-20T02:27:03;18.27;;;9.27;;
16514;SDS011;8370;52.556;7.970;2022-11-20T02:29:44;18.77;;;8.90;;
16514;SDS011;8370;52.556;7.970;2022-11-20T02:32:18;21.90;;;10.23;;
16514;SDS011;8370;52.556;7.970;2022-11-20T02:34:46;18.47;;;10.10;;
16514;SDS011;8370;52.556;7.970;2022-11-20T02:37:11;16.93;;;8.80;;
16514;SDS011;8370;52.556;7.970;2022-11-20T02:39:37;17.93;;;9.10;;
16514;SDS011;8370;52.556;7.970;2022-11-20T02:42:04;20.50;;;10.40;;
16514;SDS011;8370;52.556;7.970;2022-11-20T02:44:29;20.30;;;10.63;;
16514;SDS011;8370;52.556;7.970;2022-11-20T02:46:56;19.97;;;10.60;;
16514;SDS011;8370;52.556;7.970;2022-11-20T02:49:23;21.70;;;9.60;;
16514;SDS011;8370;52.556;7.970;2022-11-20T02:51:49;22.13;;;10.83;;
16514;SDS011;8370;52.556;7.970;2022-11-20T02:54:15;20.47;;;10.13;;
16514;SDS011;8370;52.556;7.970;2022-11-20T02:56:40;19.77;;;10.13;;
16514;SDS011;8370;52.556;7.970;2022-11-20T02:59:06;21.17;;;9.60;;
16514;SDS011;8370;52.556;7.970;2022-11-20T03:01:32;18.10;;;8.90;;
16514;SDS011;8370;52.556;7.970;2022-11-20T03:03:58;21.23;;;10.40;;
16514;SDS011;8370;52.556;7.970;2022-11-20T03:06:23;17.83;;;10.17;;
16514;SDS011;8370;52.556;7.970;2022-11-20T03:08:49;23.83;;;9.90;;
16514;SDS011;8370;52.556;7.970;2022-11-20T03:11:14;18.57;;;9.73;;
16514;SDS011;8370;52.556;7.970;2022-11-20T03:13:40;19.60;;;9.03;;
16514;SDS011;8370;52.556;7.970;2022-11-20T03:16:16;16.23;;;9.47;;
16514;SDS011;8370;52.556;7.970;2022-11-20T03:18:43;20.33;;;8.93;;
16514;SDS011;8370;52.556;7.970;2022-11-20T03:21:10;16.60;;;8.50;;
16514;SDS011;8370;52.556;7.970;2022-11-20T03:23:36;18.23;;;9.20;;
16514;SDS011;8370;52.556;7.970;2022-11-20T03:26:10;20.43;;;9.03;;
16514;SDS011;8370;52.556;7.970;2022-11-20T03:28:47;20.70;;;9.60;;
16514;SDS011;8370;52.556;7.970;2022-11-20T03:31:15;16.97;;;8.60;;
16514;SDS011;8370;52.556;7.970;2022-11-20T03:33:42;20.13;;;9.50;;
16514;SDS011;8370;52.556;7.970;2022-11-20T03:36:09;20.73;;;10.17;;
16514;SDS011;8370;52.556;7.970;2022-11-20T03:38:39;16.67;;;7.43;;
16514;SDS011;8370;52.556;7.970;2022-11-20T03:41:06;16.50;;;8.57;;
16514;SDS011;8370;52.556;7.970;2022-11-20T03:43:34;16.10;;;8.13;;
16514;SDS011;8370;52.556;7.970;2022-11-20T03:45:59;14.37;;;7.60;;
16514;SDS011;8370;52.556;7.970;2022-11-20T03:48:25;16.27;;;7.83;;
16514;SDS011;8370;52.556;7.970;2022-11-20T03:50:52;13.13;;;7.47;;
16514;SDS011;8370;52.556;7.970;2022-11-20T03:53:18;16.27;;;7.77;;
16514;SDS011;8370;52.556;7.970;2022-11-20T03:55:44;13.47;;;7.30;;
16514;SDS011;8370;52.556;7.970;2022-11-20T03:58:14;13.47;;;7.60;;
16514;SDS011;8370;52.556;7.970;2022-11-20T04:00:40;16.03;;;7.73;;
16514;SDS011;8370;52.556;7.970;2022-11-20T04:03:05;14.53;;;7.80;;
16514;SDS011;8370;52.556;7.970;2022-11-20T04:05:32;16.50;;;7.80;;
16514;SDS011;8370;52.556;7.970;2022-11-20T04:07:58;17.10;;;8.10;;
16514;SDS011;8370;52.556;7.970;2022-11-20T04:10:25;15.50;;;7.37;;
16514;SDS011;8370;52.556;7.970;2022-11-20T04:12:50;14.43;;;7.87;;
16514;SDS011;8370;52.556;7.970;2022-11-20T04:15:16;15.53;;;7.57;;
16514;SDS011;8370;52.556;7.970;2022-11-20T04:17:41;12.20;;;6.77;;
16514;SDS011;8370;52.556;7.970;2022-11-20T04:20:07;15.80;;;7.50;;
16514;SDS011;8370;52.556;7.970;2022-11-20T04:22:33;17.47;;;7.40;;
16514;SDS011;8370;52.556;7.970;2022-11-20T04:24:58;18.60;;;7.70;;
16514;SDS011;8370;52.556;7.970;2022-11-20T04:27:24;11.83;;;7.33;;
16514;SDS011;8370;52.556;7.970;2022-11-20T04:29:49;17.73;;;8.23;;
16514;SDS011;8370;52.556;7.970;2022-11-20T04:32:15;16.80;;;7.80;;
16514;SDS011;8370;52.556;7.970;2022-11-20T04:34:40;14.97;;;7.10;;
16514;SDS011;8370;52.556;7.970;2022-11-20T04:37:06;15.23;;;7.10;;
16514;SDS011;8370;52.556;7.970;2022-11-20T04:39:31;16.67;;;7.53;;
16514;SDS011;8370;52.556;7.970;2022-11-20T04:41:57;13.97;;;7.07;;
16514;SDS011;8370;52.556;7.970;2022-11-20T04:44:48;14.73;;;7.47;;
16514;SDS011;8370;52.556;7.970;2022-11-20T04:47:14;14.73;;;7.10;;
16514;SDS011;8370;52.556;7.970;2022-11-20T04:49:39;13.33;;;6.97;;
16514;SDS011;8370;52.556;7.970;2022-11-20T04:52:05;15.20;;;7.17;;
16514;SDS011;8370;52.556;7.970;2022-11-20T04:54:31;17.27;;;8.33;;
16514;SDS011;8370;52.556;7.970;2022-11-20T04:56:56;12.13;;;6.67;;
16514;SDS011;8370;52.556;7.970;2022-11-20T04:59:22;14.80;;;7.60;;
16514;SDS011;8370;52.556;7.970;2022-11-20T05:01:47;12.27;;;6.67;;
16514;SDS011;8370;52.556;7.970;2022-11-20T05:04:13;14.63;;;6.77;;
16514;SDS011;8370;52.556;7.970;2022-11-20T05:06:38;15.37;;;7.40;;
16514;SDS011;8370;52.556;7.970;2022-11-20T05:09:04;14.10;;;7.40;;
16514;SDS011;8370;52.556;7.970;2022-11-20T05:11:29;15.87;;;7.67;;
16514;SDS011;8370;52.556;7.970;2022-11-20T05:13:58;11.30;;;6.57;;
16514;SDS011;8370;52.556;7.970;2022-11-20T05:16:24;12.10;;;6.87;;
16514;SDS011;8370;52.556;7.970;2022-11-20T05:18:51;18.40;;;7.63;;
16514;SDS011;8370;52.556;7.970;2022-11-20T05:21:18;13.17;;;6.87;;
16514;SDS011;8370;52.556;7.970;2022-11-20T05:23:44;16.40;;;6.87;;
16514;SDS011;8370;52.556;7.970;2022-11-20T05:26:14;11.83;;;6.93;;
16514;SDS011;8370;52.556;7.970;2022-11-20T05:28:44;14.33;;;7.07;;
16514;SDS011;8370;52.556;7.970;2022-11-20T05:31:11;13.37;;;7.00;;
16514;SDS011;8370;52.556;7.970;2022-11-20T05:33:42;11.10;;;6.07;;
16514;SDS011;8370;52.556;7.970;2022-11-20T05:36:09;13.97;;;7.23;;
16514;SDS011;8370;52.556;7.970;2022-11-20T05:38:35;15.13;;;6.60;;
16514;SDS011;8370;52.556;7.970;2022-11-20T05:43:38;12.77;;;6.27;;
16514;SDS011;8370;52.556;7.970;2022-11-20T05:46:05;14.37;;;7.13;;
16514;SDS011;8370;52.556;7.970;2022-11-20T05:48:32;15.17;;;6.63;;
16514;SDS011;8370;52.556;7.970;2022-11-20T05:50:59;15.63;;;7.43;;
16514;SDS011;8370;52.556;7.970;2022-11-20T05:53:26;14.20;;;7.43;;
16514;SDS011;8370;52.556;7.970;2022-11-20T05:55:58;14.63;;;6.50;;
16514;SDS011;8370;52.556;7.970;2022-11-20T05:58:25;15.23;;;7.77;;
16514;SDS011;8370;52.556;7.970;2022-11-20T06:00:51;14.57;;;7.53;;
16514;SDS011;8370;52.556;7.970;2022-11-20T06:03:16;12.87;;;6.93;;
16514;SDS011;8370;52.556;7.970;2022-11-20T06:05:42;15.47;;;7.53;;
16514;SDS011;8370;52.556;7.970;2022-11-20T06:08:07;15.70;;;7.87;;
16514;SDS011;8370;52.556;7.970;2022-11-20T06:10:33;12.40;;;6.70;;
16514;SDS011;8370;52.556;7.970;2022-11-20T06:12:58;14.20;;;6.73;;
16514;SDS011;8370;52.556;7.970;2022-11-20T06:15:24;13.07;;;7.27;;
16514;SDS011;8370;52.556;7.970;2022-11-20T06:17:53;13.53;;;7.00;;
16514;SDS011;8370;52.556;7.970;2022-11-20T06:20:19;18.40;;;7.03;;
16514;SDS011;8370;52.556;7.970;2022-11-20T06:22:45;14.53;;;7.53;;
16514;SDS011;8370;52.556;7.970;2022-11-20T06:25:11;12.47;;;6.90;;
16514;SDS011;8370;52.556;7.970;2022-11-20T06:27:36;14.30;;;6.90;;
16514;SDS011;8370;52.556;7.970;2022-11-20T06:30:02;12.63;;;7.33;;
16514;SDS011;8370;52.556;7.970;2022-11-20T06:32:28;20.63;;;6.93;;
16514;SDS011;8370;52.556;7.970;2022-11-20T06:34:54;15.23;;;6.73;;
16514;SDS011;8370;52.556;7.970;2022-11-20T06:37:19;13.47;;;6.90;;
16514;SDS011;8370;52.556;7.970;2022-11-20T06:39:45;15.33;;;7.73;;
16514;SDS011;8370;52.556;7.970;2022-11-20T06:42:10;13.10;;;7.70;;
16514;SDS011;8370;52.556;7.970;2022-11-20T06:44:36;13.67;;;6.77;;
16514;SDS011;8370;52.556;7.970;2022-11-20T06:47:01;14.33;;;7.33;;
16514;SDS011;8370;52.556;7.970;2022-11-20T06:49:27;12.93;;;7.30;;
16514;SDS011;8370;52.556;7.970;2022-11-20T06:51:52;15.23;;;6.93;;
16514;SDS011;8370;52.556;7.970;2022-11-20T06:54:18;16.83;;;8.13;;
16514;SDS011;8370;52.556;7.970;2022-11-20T06:56:46;14.97;;;8.37;;
16514;SDS011;8370;52.556;7.970;2022-11-20T06:59:12;18.47;;;7.97;;
16514;SDS011;8370;52.556;7.970;2022-11-20T07:01:38;16.83;;;7.73;;
16514;SDS011;8370;52.556;7.970;2022-11-20T07:04:04;13.20;;;7.43;;
16514;SDS011;8370;52.556;7.970;2022-11-20T07:06:29;16.07;;;10.30;;
16514;SDS011;8370;52.556;7.970;2022-11-20T07:08:55;15.43;;;8.27;;
16514;SDS011;8370;52.556;7.970;2022-11-20T07:11:21;17.03;;;8.87;;
16514;SDS011;8370;52.556;7.970;2022-11-20T07:13:47;14.57;;;7.90;;
16514;SDS011;8370;52.556;7.970;2022-11-20T07:16:12;16.57;;;7.03;;
16514;SDS011;8370;52.556;7.970;2022-11-20T07:18:38;14.70;;;8.70;;
16514;SDS011;8370;52.556;7.970;2022-11-20T07:21:04;16.93;;;8.27;;
16514;SDS011;8370;52.556;7.970;2022-11-20T07:23:32;16.63;;;7.40;;
16514;SDS011;8370;52.556;7.970;2022-11-20T07:25:58;18.80;;;12.50;;
16514;SDS011;8370;52.556;7.970;2022-11-20T07:28:27;13.73;;;8.53;;
16514;SDS011;8370;52.556;7.970;2022-11-20T07:30:52;16.43;;;8.20;;
16514;SDS011;8370;52.556;7.970;2022-11-20T07:33:19;16.10;;;8.10;;
16514;SDS011;8370;52.556;7.970;2022-11-20T07:35:45;16.13;;;8.57;;
16514;SDS011;8370;52.556;7.970;2022-11-20T07:38:11;16.97;;;7.33;;
16514;SDS011;8370;52.556;7.970;2022-11-20T07:40:36;15.07;;;7.77;;
16514;SDS011;8370;52.556;7.970;2022-11-20T07:43:01;15.53;;;7.83;;
16514;SDS011;8370;52.556;7.970;2022-11-20T07:45:27;13.43;;;7.00;;
16514;SDS011;8370;52.556;7.970;2022-11-20T07:47:53;15.87;;;9.77;;
16514;SDS011;8370;52.556;7.970;2022-11-20T07:50:18;12.80;;;7.33;;
16514;SDS011;8370;52.556;7.970;2022-11-20T07:52:44;14.63;;;7.10;;
16514;SDS011;8370;52.556;7.970;2022-11-20T07:55:10;16.37;;;7.40;;
16514;SDS011;8370;52.556;7.970;2022-11-20T07:57:36;16.37;;;10.27;;
16514;SDS011;8370;52.556;7.970;2022-11-20T08:00:05;13.53;;;7.17;;
16514;SDS011;8370;52.556;7.970;2022-11-20T08:02:39;21.10;;;11.47;;
16514;SDS011;8370;52.556;7.970;2022-11-20T08:05:05;16.57;;;8.17;;
16514;SDS011;8370;52.556;7.970;2022-11-20T08:07:36;16.47;;;8.67;;
16514;SDS011;8370;52.556;7.970;2022-11-20T08:10:05;15.43;;;6.87;;
16514;SDS011;8370;52.556;7.970;2022-11-20T08:12:32;14.43;;;6.57;;
16514;SDS011;8370;52.556;7.970;2022-11-20T08:15:16;15.70;;;6.67;;
16514;SDS011;8370;52.556;7.970;2022-11-20T08:17:42;14.40;;;7.23;;
16514;SDS011;8370;52.556;7.970;2022-11-20T08:20:08;14.07;;;6.73;;
16514;SDS011;8370;52.556;7.970;2022-11-20T08:22:34;32.53;;;16.13;;
16514;SDS011;8370;52.556;7.970;2022-11-20T08:25:00;12.80;;;7.60;;
16514;SDS011;8370;52.556;7.970;2022-11-20T08:27:25;36.40;;;17.20;;
16514;SDS011;8370;52.556;7.970;2022-11-20T08:29:51;34.93;;;20.67;;
16514;SDS011;8370;52.556;7.970;2022-11-20T08:32:16;32.43;;;15.50;;
16514;SDS011;8370;52.556;7.970;2022-11-20T08:34:42;29.13;;;16.03;;
16514;SDS011;8370;52.556;7.970;2022-11-20T08:37:07;14.53;;;7.13;;
16514;SDS011;8370;52.556;7.970;2022-11-20T08:39:33;12.30;;;7.43;;
16514;SDS011;8370;52.556;7.970;2022-11-20T08:41:59;13.83;;;7.80;;
16514;SDS011;8370;52.556;7.970;2022-11-20T08:44:24;12.10;;;6.67;;
16514;SDS011;8370;52.556;7.970;2022-11-20T08:46:50;11.77;;;6.30;;
16514;SDS011;8370;52.556;7.970;2022-11-20T08:49:15;13.10;;;6.57;;
16514;SDS011;8370;52.556;7.970;2022-11-20T08:51:41;12.60;;;6.27;;
16514;SDS011;8370;52.556;7.970;2022-11-20T08:54:07;12.80;;;6.70;;
16514;SDS011;8370;52.556;7.970;2022-11-20T08:56:33;11.90;;;6.40;;
16514;SDS011;8370;52.556;7.970;2022-11-20T08:58:58;11.90;;;6.67;;
16514;SDS011;8370;52.556;7.970;2022-11-20T09:01:24;16.37;;;9.40;;
16514;SDS011;8370;52.556;7.970;2022-11-20T09:03:50;12.53;;;7.00;;
16514;SDS011;8370;52.556;7.970;2022-11-20T09:06:16;12.90;;;6.30;;
16514;SDS011;8370;52.556;7.970;2022-11-20T09:08:42;11.00;;;6.30;;
16514;SDS011;8370;52.556;7.970;2022-11-20T09:11:08;17.77;;;9.70;;
16514;SDS011;8370;52.556;7.970;2022-11-20T09:13:35;13.17;;;6.87;;
16514;SDS011;8370;52.556;7.970;2022-11-20T09:16:02;11.97;;;6.23;;
16514;SDS011;8370;52.556;7.970;2022-11-20T09:18:32;16.23;;;7.83;;
16514;SDS011;8370;52.556;7.970;2022-11-20T09:20:59;12.37;;;6.60;;
16514;SDS011;8370;52.556;7.970;2022-11-20T09:23:26;15.00;;;8.47;;
16514;SDS011;8370;52.556;7.970;2022-11-20T09:25:52;17.90;;;9.10;;
16514;SDS011;8370;52.556;7.970;2022-11-20T09:28:20;9.27;;;6.10;;
16514;SDS011;8370;52.556;7.970;2022-11-20T09:30:46;13.67;;;8.27;;
16514;SDS011;8370;52.556;7.970;2022-11-20T09:33:12;15.10;;;7.07;;
16514;SDS011;8370;52.556;7.970;2022-11-20T09:35:37;10.87;;;6.77;;
16514;SDS011;8370;52.556;7.970;2022-11-20T09:38:06;13.07;;;6.70;;
16514;SDS011;8370;52.556;7.970;2022-11-20T09:40:32;12.17;;;6.93;;
16514;SDS011;8370;52.556;7.970;2022-11-20T09:55:03;13.60;;;6.77;;
16514;SDS011;8370;52.556;7.970;2022-11-20T09:57:39;11.93;;;6.70;;
16514;SDS011;8370;52.556;7.970;2022-11-20T10:00:11;12.30;;;6.40;;
16514;SDS011;8370;52.556;7.970;2022-11-20T10:05:51;13.93;;;7.90;;
16514;SDS011;8370;52.556;7.970;2022-11-20T10:08:20;11.37;;;6.67;;
16514;SDS011;8370;52.556;7.970;2022-11-20T10:13:34;12.97;;;7.53;;
16514;SDS011;8370;52.556;7.970;2022-11-20T10:24:34;14.23;;;7.33;;
16514;SDS011;8370;52.556;7.970;2022-11-20T10:30:00;15.10;;;7.70;;
16514;SDS011;8370;52.556;7.970;2022-11-20T10:32:30;19.13;;;8.23;;
16514;SDS011;8370;52.556;7.970;2022-11-20T10:35:02;13.80;;;7.50;;
16514;SDS011;8370;52.556;7.970;2022-11-20T10:37:33;16.23;;;8.33;;
16514;SDS011;8370;52.556;7.970;2022-11-20T10:43:07;14.30;;;8.27;;
16514;SDS011;8370;52.556;7.970;2022-11-20T10:45:42;15.57;;;9.03;;
16514;SDS011;8370;52.556;7.970;2022-11-20T10:48:27;18.67;;;8.80;;
16514;SDS011;8370;52.556;7.970;2022-11-20T10:53:50;14.97;;;7.87;;
16514;SDS011;8370;52.556;7.970;2022-11-20T10:56:19;18.73;;;8.27;;
16514;SDS011;8370;52.556;7.970;2022-11-20T11:01:55;14.97;;;8.23;;
16514;SDS011;8370;52.556;7.970;2022-11-20T11:04:35;16.33;;;8.93;;
16514;SDS011;8370;52.556;7.970;2022-11-20T11:09:53;14.60;;;7.40;;
16514;SDS011;8370;52.556;7.970;2022-11-20T11:12:20;12.30;;;7.07;;
16514;SDS011;8370;52.556;7.970;2022-11-20T11:14:49;14.17;;;7.70;;
16514;SDS011;8370;52.556;7.970;2022-11-20T11:17:29;14.47;;;8.17;;
16514;SDS011;8370;52.556;7.970;2022-11-20T11:19:56;31.30;;;13.77;;
16514;SDS011;8370;52.556;7.970;2022-11-20T11:22:43;15.03;;;7.87;;
16514;SDS011;8370;52.556;7.970;2022-11-20T11:27:53;20.97;;;11.37;;
16514;SDS011;8370;52.556;7.970;2022-11-20T11:30:21;14.87;;;8.53;;
16514;SDS011;8370;52.556;7.970;2022-11-20T11:32:49;17.67;;;8.00;;
16514;SDS011;8370;52.556;7.970;2022-11-20T11:35:22;19.53;;;9.50;;
16514;SDS011;8370;52.556;7.970;2022-11-20T11:37:50;16.60;;;9.27;;
16514;SDS011;8370;52.556;7.970;2022-11-20T11:40:18;14.00;;;8.77;;
16514;SDS011;8370;52.556;7.970;2022-11-20T11:43:28;17.70;;;9.80;;
16514;SDS011;8370;52.556;7.970;2022-11-20T11:46:24;17.50;;;8.87;;
16514;SDS011;8370;52.556;7.970;2022-11-20T11:48:59;14.60;;;8.17;;
16514;SDS011;8370;52.556;7.970;2022-11-20T11:51:28;14.40;;;8.30;;
16514;SDS011;8370;52.556;7.970;2022-11-20T11:54:10;14.73;;;8.80;;
16514;SDS011;8370;52.556;7.970;2022-11-20T11:56:42;16.90;;;9.17;;
16514;SDS011;8370;52.556;7.970;2022-11-20T11:59:10;19.27;;;9.67;;
16514;SDS011;8370;52.556;7.970;2022-11-20T12:01:43;12.97;;;8.10;;
16514;SDS011;8370;52.556;7.970;2022-11-20T12:07:42;15.93;;;8.17;;
16514;SDS011;8370;52.556;7.970;2022-11-20T12:10:23;14.97;;;8.20;;
16514;SDS011;8370;52.556;7.970;2022-11-20T12:13:17;14.23;;;8.43;;
16514;SDS011;8370;52.556;7.970;2022-11-20T12:15:40;12.60;;;7.57;;
16514;SDS011;8370;52.556;7.970;2022-11-20T12:18:15;13.33;;;8.37;;
16514;SDS011;8370;52.556;7.970;2022-11-20T12:20:45;17.13;;;9.23;;
16514;SDS011;8370;52.556;7.970;2022-11-20T12:29:21;12.77;;;8.70;;
16514;SDS011;8370;52.556;7.970;2022-11-20T12:37:36;15.57;;;8.93;;
16514;SDS011;8370;52.556;7.970;2022-11-20T12:40:27;15.20;;;8.73;;
16514;SDS011;8370;52.556;7.970;2022-11-20T12:43:11;14.53;;;7.90;;
16514;SDS011;8370;52.556;7.970;2022-11-20T12:46:02;14.87;;;8.37;;
16514;SDS011;8370;52.556;7.970;2022-11-20T12:49:20;17.00;;;7.87;;
16514;SDS011;8370;52.556;7.970;2022-11-20T12:54:24;13.43;;;7.17;;
16514;SDS011;8370;52.556;7.970;2022-11-20T12:57:04;13.97;;;7.40;;
16514;SDS011;8370;52.556;7.970;2022-11-20T13:02:09;14.17;;;7.80;;
16514;SDS011;8370;52.556;7.970;2022-11-20T13:07:30;13.30;;;8.00;;
16514;SDS011;8370;52.556;7.970;2022-11-20T13:09:57;11.93;;;6.53;;
16514;SDS011;8370;52.556;7.970;2022-11-20T13:12:35;14.63;;;7.57;;
16514;SDS011;8370;52.556;7.970;2022-11-20T13:17:46;15.13;;;7.83;;
16514;SDS011;8370;52.556;7.970;2022-11-20T13:20:24;12.93;;;7.23;;
16514;SDS011;8370;52.556;7.970;2022-11-20T13:22:51;13.57;;;8.03;;
16514;SDS011;8370;52.556;7.970;2022-11-20T13:25:26;19.43;;;9.87;;
16514;SDS011;8370;52.556;7.970;2022-11-20T13:27:52;14.87;;;8.00;;
16514;SDS011;8370;52.556;7.970;2022-11-20T13:30:19;15.90;;;8.20;;
16514;SDS011;8370;52.556;7.970;2022-11-20T13:35:29;17.30;;;7.67;;
16514;SDS011;8370;52.556;7.970;2022-11-20T13:38:07;14.63;;;8.23;;
16514;SDS011;8370;52.556;7.970;2022-11-20T13:40:36;14.07;;;7.10;;
16514;SDS011;8370;52.556;7.970;2022-11-20T13:45:57;25.80;;;8.00;;
16514;SDS011;8370;52.556;7.970;2022-11-20T13:48:26;15.63;;;7.93;;
16514;SDS011;8370;52.556;7.970;2022-11-20T13:51:05;16.70;;;7.60;;
16514;SDS011;8370;52.556;7.970;2022-11-20T14:02:11;16.57;;;7.90;;
16514;SDS011;8370;52.556;7.970;2022-11-20T14:04:41;15.03;;;7.77;;
16514;SDS011;8370;52.556;7.970;2022-11-20T14:07:10;16.53;;;8.63;;
16514;SDS011;8370;52.556;7.970;2022-11-20T14:09:36;13.77;;;8.20;;
16514;SDS011;8370;52.556;7.970;2022-11-20T14:12:02;16.73;;;9.10;;
16514;SDS011;8370;52.556;7.970;2022-11-20T14:14:29;20.00;;;9.23;;
16514;SDS011;8370;52.556;7.970;2022-11-20T14:17:05;17.27;;;8.73;;
16514;SDS011;8370;52.556;7.970;2022-11-20T14:19:32;17.50;;;8.17;;
16514;SDS011;8370;52.556;7.970;2022-11-20T14:22:17;20.00;;;8.60;;
16514;SDS011;8370;52.556;7.970;2022-11-20T14:24:45;18.80;;;8.43;;
16514;SDS011;8370;52.556;7.970;2022-11-20T14:27:16;22.03;;;9.00;;
16514;SDS011;8370;52.556;7.970;2022-11-20T14:29:44;20.13;;;8.80;;
16514;SDS011;8370;52.556;7.970;2022-11-20T14:32:11;23.53;;;9.13;;
16514;SDS011;8370;52.556;7.970;2022-11-20T14:34:41;20.20;;;9.13;;
16514;SDS011;8370;52.556;7.970;2022-11-20T14:37:13;17.43;;;7.63;;
16514;SDS011;8370;52.556;7.970;2022-11-20T14:39:48;17.90;;;8.00;;
16514;SDS011;8370;52.556;7.970;2022-11-20T14:42:20;20.63;;;9.13;;
16514;SDS011;8370;52.556;7.970;2022-11-20T14:44:48;17.80;;;8.53;;
16514;SDS011;8370;52.556;7.970;2022-11-20T14:47:21;20.47;;;8.13;;
16514;SDS011;8370;52.556;7.970;2022-11-20T14:49:48;19.60;;;7.60;;
16514;SDS011;8370;52.556;7.970;2022-11-20T14:52:17;20.37;;;8.73;;
16514;SDS011;8370;52.556;7.970;2022-11-20T14:54:54;18.43;;;8.37;;
16514;SDS011;8370;52.556;7.970;2022-11-20T15:00:04;20.00;;;8.30;;
16514;SDS011;8370;52.556;7.970;2022-11-20T15:02:32;20.93;;;8.80;;
16514;SDS011;8370;52.556;7.970;2022-11-20T15:04:58;22.60;;;8.60;;
16514;SDS011;8370;52.556;7.970;2022-11-20T15:10:03;21.80;;;8.10;;
16514;SDS011;8370;52.556;7.970;2022-11-20T15:12:30;20.77;;;8.83;;
16514;SDS011;8370;52.556;7.970;2022-11-20T15:14:57;23.80;;;9.47;;
16514;SDS011;8370;52.556;7.970;2022-11-20T15:17:23;19.67;;;8.07;;
16514;SDS011;8370;52.556;7.970;2022-11-20T15:19:49;23.83;;;9.10;;
16514;SDS011;8370;52.556;7.970;2022-11-20T15:22:14;19.77;;;8.47;;
16514;SDS011;8370;52.556;7.970;2022-11-20T15:24:43;20.77;;;8.87;;
16514;SDS011;8370;52.556;7.970;2022-11-20T15:27:09;20.87;;;9.63;;
16514;SDS011;8370;52.556;7.970;2022-11-20T15:29:35;24.43;;;8.63;;
16514;SDS011;8370;52.556;7.970;2022-11-20T15:32:00;18.27;;;8.77;;
16514;SDS011;8370;52.556;7.970;2022-11-20T15:34:27;19.97;;;8.47;;
16514;SDS011;8370;52.556;7.970;2022-11-20T15:36:53;23.00;;;9.37;;
16514;SDS011;8370;52.556;7.970;2022-11-20T15:39:19;21.10;;;8.13;;
16514;SDS011;8370;52.556;7.970;2022-11-20T15:41:45;22.83;;;8.53;;
16514;SDS011;8370;52.556;7.970;2022-11-20T15:44:11;22.43;;;8.33;;
16514;SDS011;8370;52.556;7.970;2022-11-20T15:46:37;19.27;;;8.03;;
16514;SDS011;8370;52.556;7.970;2022-11-20T15:51:40;21.73;;;8.97;;
16514;SDS011;8370;52.556;7.970;2022-11-20T15:54:15;17.43;;;8.00;;
16514;SDS011;8370;52.556;7.970;2022-11-20T15:56:44;22.90;;;8.93;;
16514;SDS011;8370;52.556;7.970;2022-11-20T15:59:14;20.70;;;10.07;;
16514;SDS011;8370;52.556;7.970;2022-11-20T16:01:40;21.17;;;8.83;;
16514;SDS011;8370;52.556;7.970;2022-11-20T16:04:12;20.53;;;8.87;;
16514;SDS011;8370;52.556;7.970;2022-11-20T16:06:40;18.30;;;8.40;;
16514;SDS011;8370;52.556;7.970;2022-11-20T16:09:05;18.67;;;9.33;;
16514;SDS011;8370;52.556;7.970;2022-11-20T16:11:32;18.27;;;9.43;;
16514;SDS011;8370;52.556;7.970;2022-11-20T16:13:58;16.33;;;8.63;;
16514;SDS011;8370;52.556;7.970;2022-11-20T16:16:42;22.60;;;9.70;;
16514;SDS011;8370;52.556;7.970;2022-11-20T16:19:11;16.87;;;8.37;;
16514;SDS011;8370;52.556;7.970;2022-11-20T16:21:37;14.77;;;8.47;;
16514;SDS011;8370;52.556;7.970;2022-11-20T16:24:09;18.93;;;9.70;;
16514;SDS011;8370;52.556;7.970;2022-11-20T16:26:37;17.90;;;8.73;;
16514;SDS011;8370;52.556;7.970;2022-11-20T16:29:04;19.10;;;8.47;;
16514;SDS011;8370;52.556;7.970;2022-11-20T16:31:30;16.57;;;8.50;;
16514;SDS011;8370;52.556;7.970;2022-11-20T16:33:57;20.57;;;9.23;;
16514;SDS011;8370;52.556;7.970;2022-11-20T16:36:25;21.70;;;9.63;;